sensor_id;sensor_type;location;lat;lon;timestamp;P1;durP1;ratioP1;P2;durP2;ratioP2
37931;SDS011;23758;42.640;23.302;2022-07-15T00:00:16;2.13;;;2.03;;
37931;SDS011;23758;42.640;23.302;2022-07-15T00:02:42;2.05;;;1.95;;
37931;SDS011;23758;42.640;23.302;2022-07-15T00:05:09;2.10;;;2.00;;
37931;SDS011;23758;42.640;23.302;2022-07-15T00:07:36;1.90;;;1.80;;
37931;SDS011;23758;42.640;23.302;2022-07-15T00:10:02;2.10;;;2.00;;
37931;SDS011;23758;42.640;23.302;2022-07-15T00:12:44;2.00;;;1.90;;
37931;SDS011;23758;42.640;23.302;2022-07-15T00:15:12;2.00;;;1.90;;
37931;SDS011;23758;42.640;23.302;2022-07-15T00:17:38;1.90;;;1.80;;
37931;SDS011;23758;42.640;23.302;2022-07-15T00:20:05;2.20;;;2.10;;
37931;SDS011;23758;42.640;23.302;2022-07-15T00:22:30;2.10;;;2.00;;
37931;SDS011;23758;42.640;23.302;2022-07-15T00:24:56;2.20;;;2.10;;
37931;SDS011;23758;42.640;23.302;2022-07-15T00:27:22;2.00;;;1.90;;
37931;SDS011;23758;42.640;23.302;2022-07-15T00:29:48;2.00;;;1.90;;
37931;SDS011;23758;42.640;23.302;2022-07-15T00:32:14;2.05;;;1.95;;
37931;SDS011;23758;42.640;23.302;2022-07-15T00:34:39;2.00;;;1.90;;
37931;SDS011;23758;42.640;23.302;2022-07-15T00:37:05;2.00;;;1.90;;
37931;SDS011;23758;42.640;23.302;2022-07-15T00:39:31;2.00;;;1.90;;
37931;SDS011;23758;42.640;23.302;2022-07-15T00:41:56;2.10;;;2.00;;
37931;SDS011;23758;42.640;23.302;2022-07-15T00:44:22;2.10;;;2.00;;
37931;SDS011;23758;42.640;23.302;2022-07-15T00:46:47;2.10;;;2.00;;
37931;SDS011;23758;42.640;23.302;2022-07-15T00:49:13;2.00;;;1.90;;
37931;SDS011;23758;42.640;23.302;2022-07-15T00:51:43;2.10;;;2.00;;
37931;SDS011;23758;42.640;23.302;2022-07-15T00:54:11;2.13;;;2.03;;
37931;SDS011;23758;42.640;23.302;2022-07-15T00:56:46;2.20;;;2.10;;
37931;SDS011;23758;42.640;23.302;2022-07-15T00:59:12;2.25;;;2.15;;
37931;SDS011;23758;42.640;23.302;2022-07-15T01:01:39;2.00;;;1.90;;
37931;SDS011;23758;42.640;23.302;2022-07-15T01:04:05;2.00;;;1.90;;
37931;SDS011;23758;42.640;23.302;2022-07-15T01:06:31;1.90;;;1.80;;
37931;SDS011;23758;42.640;23.302;2022-07-15T01:08:57;2.00;;;1.90;;
37931;SDS011;23758;42.640;23.302;2022-07-15T01:11:22;2.10;;;2.00;;
37931;SDS011;23758;42.640;23.302;2022-07-15T01:13:48;2.10;;;2.00;;
37931;SDS011;23758;42.640;23.302;2022-07-15T01:16:13;2.20;;;2.10;;
37931;SDS011;23758;42.640;23.302;2022-07-15T01:18:40;2.33;;;2.22;;
37931;SDS011;23758;42.640;23.302;2022-07-15T01:21:05;3.55;;;2.58;;
37931;SDS011;23758;42.640;23.302;2022-07-15T01:23:31;2.45;;;2.30;;
37931;SDS011;23758;42.640;23.302;2022-07-15T01:25:56;2.10;;;2.00;;
37931;SDS011;23758;42.640;23.302;2022-07-15T01:28:22;2.10;;;2.00;;
37931;SDS011;23758;42.640;23.302;2022-07-15T01:30:47;2.25;;;2.15;;
37931;SDS011;23758;42.640;23.302;2022-07-15T01:33:13;2.10;;;2.00;;
37931;SDS011;23758;42.640;23.302;2022-07-15T01:35:39;2.10;;;2.00;;
37931;SDS011;23758;42.640;23.302;2022-07-15T01:38:04;2.10;;;2.00;;
37931;SDS011;23758;42.640;23.302;2022-07-15T01:40:30;2.10;;;2.00;;
37931;SDS011;23758;42.640;23.302;2022-07-15T01:42:55;2.30;;;2.20;;
37931;SDS011;23758;42.640;23.302;2022-07-15T01:45:21;2.10;;;2.00;;
37931;SDS011;23758;42.640;23.302;2022-07-15T01:47:47;2.20;;;2.10;;
37931;SDS011;23758;42.640;23.302;2022-07-15T01:50:14;3.15;;;2.40;;
37931;SDS011;23758;42.640;23.302;2022-07-15T01:52:40;2.10;;;2.00;;
37931;SDS011;23758;42.640;23.302;2022-07-15T01:55:06;2.20;;;2.10;;
37931;SDS011;23758;42.640;23.302;2022-07-15T01:57:33;2.40;;;2.30;;
37931;SDS011;23758;42.640;23.302;2022-07-15T01:59:58;2.20;;;2.10;;
37931;SDS011;23758;42.640;23.302;2022-07-15T02:02:24;2.20;;;2.10;;
37931;SDS011;23758;42.640;23.302;2022-07-15T02:04:49;2.10;;;2.00;;
37931;SDS011;23758;42.640;23.302;2022-07-15T02:07:15;2.20;;;2.10;;
37931;SDS011;23758;42.640;23.302;2022-07-15T02:09:40;2.28;;;2.17;;
37931;SDS011;23758;42.640;23.302;2022-07-15T02:12:06;2.20;;;2.10;;
37931;SDS011;23758;42.640;23.302;2022-07-15T02:14:32;2.20;;;2.10;;
37931;SDS011;23758;42.640;23.302;2022-07-15T02:16:59;2.25;;;2.15;;
37931;SDS011;23758;42.640;23.302;2022-07-15T02:19:24;2.25;;;2.15;;
37931;SDS011;23758;42.640;23.302;2022-07-15T02:21:50;3.08;;;2.75;;
37931;SDS011;23758;42.640;23.302;2022-07-15T02:24:15;2.58;;;2.40;;
37931;SDS011;23758;42.640;23.302;2022-07-15T02:26:43;2.90;;;2.70;;
37931;SDS011;23758;42.640;23.302;2022-07-15T02:29:10;2.72;;;2.53;;
37931;SDS011;23758;42.640;23.302;2022-07-15T02:31:35;2.50;;;2.40;;
37931;SDS011;23758;42.640;23.302;2022-07-15T02:34:01;2.78;;;2.58;;
37931;SDS011;23758;42.640;23.302;2022-07-15T02:36:27;2.50;;;2.40;;
37931;SDS011;23758;42.640;23.302;2022-07-15T02:38:52;2.60;;;2.42;;
37931;SDS011;23758;42.640;23.302;2022-07-15T02:41:18;2.70;;;2.50;;
37931;SDS011;23758;42.640;23.302;2022-07-15T02:43:43;5.25;;;3.00;;
37931;SDS011;23758;42.640;23.302;2022-07-15T02:46:09;2.58;;;2.42;;
37931;SDS011;23758;42.640;23.302;2022-07-15T02:48:36;2.88;;;2.67;;
37931;SDS011;23758;42.640;23.302;2022-07-15T02:51:02;3.00;;;2.80;;
37931;SDS011;23758;42.640;23.302;2022-07-15T02:53:28;2.65;;;2.45;;
37931;SDS011;23758;42.640;23.302;2022-07-15T02:55:56;2.60;;;2.45;;
37931;SDS011;23758;42.640;23.302;2022-07-15T02:58:24;2.70;;;2.50;;
37931;SDS011;23758;42.640;23.302;2022-07-15T03:00:49;2.70;;;2.50;;
37931;SDS011;23758;42.640;23.302;2022-07-15T03:03:15;2.70;;;2.50;;
37931;SDS011;23758;42.640;23.302;2022-07-15T03:05:41;2.50;;;2.40;;
37931;SDS011;23758;42.640;23.302;2022-07-15T03:08:07;2.63;;;2.42;;
37931;SDS011;23758;42.640;23.302;2022-07-15T03:10:32;2.47;;;2.38;;
37931;SDS011;23758;42.640;23.302;2022-07-15T03:12:58;2.70;;;2.50;;
37931;SDS011;23758;42.640;23.302;2022-07-15T03:15:24;2.80;;;2.60;;
37931;SDS011;23758;42.640;23.302;2022-07-15T03:17:49;2.70;;;2.50;;
37931;SDS011;23758;42.640;23.302;2022-07-15T03:20:15;2.80;;;2.60;;
37931;SDS011;23758;42.640;23.302;2022-07-15T03:22:40;2.70;;;2.50;;
37931;SDS011;23758;42.640;23.302;2022-07-15T03:25:06;3.17;;;2.95;;
37931;SDS011;23758;42.640;23.302;2022-07-15T03:27:32;2.80;;;2.60;;
37931;SDS011;23758;42.640;23.302;2022-07-15T03:29:58;2.90;;;2.70;;
37931;SDS011;23758;42.640;23.302;2022-07-15T03:32:25;2.70;;;2.50;;
37931;SDS011;23758;42.640;23.302;2022-07-15T03:34:50;2.80;;;2.60;;
37931;SDS011;23758;42.640;23.302;2022-07-15T03:37:16;2.70;;;2.50;;
37931;SDS011;23758;42.640;23.302;2022-07-15T03:39:41;3.10;;;2.90;;
37931;SDS011;23758;42.640;23.302;2022-07-15T03:42:07;2.90;;;2.70;;
37931;SDS011;23758;42.640;23.302;2022-07-15T03:44:32;2.80;;;2.60;;
37931;SDS011;23758;42.640;23.302;2022-07-15T03:46:58;2.80;;;2.60;;
37931;SDS011;23758;42.640;23.302;2022-07-15T03:49:23;3.35;;;2.70;;
37931;SDS011;23758;42.640;23.302;2022-07-15T03:51:49;3.28;;;3.00;;
37931;SDS011;23758;42.640;23.302;2022-07-15T03:54:15;3.08;;;2.88;;
37931;SDS011;23758;42.640;23.302;2022-07-15T03:56:40;3.00;;;2.80;;
37931;SDS011;23758;42.640;23.302;2022-07-15T03:59:06;3.58;;;3.28;;
37931;SDS011;23758;42.640;23.302;2022-07-15T04:01:31;3.90;;;3.60;;
37931;SDS011;23758;42.640;23.302;2022-07-15T04:03:57;3.60;;;3.40;;
37931;SDS011;23758;42.640;23.302;2022-07-15T04:06:23;3.30;;;3.10;;
37931;SDS011;23758;42.640;23.302;2022-07-15T04:08:49;3.22;;;3.03;;
37931;SDS011;23758;42.640;23.302;2022-07-15T04:11:16;3.22;;;3.03;;
37931;SDS011;23758;42.640;23.302;2022-07-15T04:13:41;3.50;;;3.20;;
37931;SDS011;23758;42.640;23.302;2022-07-15T04:16:08;3.60;;;3.30;;
37931;SDS011;23758;42.640;23.302;2022-07-15T04:18:36;2.88;;;2.67;;
37931;SDS011;23758;42.640;23.302;2022-07-15T04:21:18;3.00;;;2.80;;
37931;SDS011;23758;42.640;23.302;2022-07-15T04:23:43;2.70;;;2.50;;
37931;SDS011;23758;42.640;23.302;2022-07-15T04:26:09;2.65;;;2.45;;
37931;SDS011;23758;42.640;23.302;2022-07-15T04:28:34;2.70;;;2.50;;
37931;SDS011;23758;42.640;23.302;2022-07-15T04:31:00;3.30;;;3.10;;
37931;SDS011;23758;42.640;23.302;2022-07-15T04:33:26;2.72;;;2.53;;
37931;SDS011;23758;42.640;23.302;2022-07-15T04:35:51;2.72;;;2.53;;
37931;SDS011;23758;42.640;23.302;2022-07-15T04:38:17;2.10;;;2.00;;
37931;SDS011;23758;42.640;23.302;2022-07-15T04:40:43;1.98;;;1.88;;
37931;SDS011;23758;42.640;23.302;2022-07-15T04:43:08;2.15;;;2.05;;
37931;SDS011;23758;42.640;23.302;2022-07-15T04:45:34;1.90;;;1.80;;
37931;SDS011;23758;42.640;23.302;2022-07-15T04:48:00;2.80;;;2.60;;
37931;SDS011;23758;42.640;23.302;2022-07-15T04:50:25;2.40;;;2.30;;
37931;SDS011;23758;42.640;23.302;2022-07-15T04:53:09;2.03;;;1.92;;
37931;SDS011;23758;42.640;23.302;2022-07-15T04:55:35;1.40;;;1.30;;
37931;SDS011;23758;42.640;23.302;2022-07-15T04:58:00;1.50;;;1.40;;
37931;SDS011;23758;42.640;23.302;2022-07-15T05:00:26;1.30;;;1.20;;
37931;SDS011;23758;42.640;23.302;2022-07-15T05:02:52;1.20;;;1.15;;
37931;SDS011;23758;42.640;23.302;2022-07-15T05:05:17;1.38;;;1.27;;
37931;SDS011;23758;42.640;23.302;2022-07-15T05:07:44;0.98;;;0.98;;
37931;SDS011;23758;42.640;23.302;2022-07-15T05:10:10;4.32;;;1.52;;
37931;SDS011;23758;42.640;23.302;2022-07-15T05:12:36;1.08;;;1.00;;
37931;SDS011;23758;42.640;23.302;2022-07-15T05:15:02;1.05;;;1.00;;
37931;SDS011;23758;42.640;23.302;2022-07-15T05:17:28;0.93;;;0.93;;
37931;SDS011;23758;42.640;23.302;2022-07-15T05:19:53;0.82;;;0.82;;
37931;SDS011;23758;42.640;23.302;2022-07-15T05:22:19;4.45;;;1.08;;
37931;SDS011;23758;42.640;23.302;2022-07-15T05:24:45;0.88;;;0.88;;
37931;SDS011;23758;42.640;23.302;2022-07-15T05:27:10;29.80;;;1.33;;
37931;SDS011;23758;42.640;23.302;2022-07-15T05:29:36;1.13;;;1.02;;
37931;SDS011;23758;42.640;23.302;2022-07-15T05:32:02;0.75;;;0.75;;
37931;SDS011;23758;42.640;23.302;2022-07-15T05:34:27;0.70;;;0.70;;
37931;SDS011;23758;42.640;23.302;2022-07-15T05:36:53;1.13;;;1.05;;
37931;SDS011;23758;42.640;23.302;2022-07-15T05:39:18;0.60;;;0.60;;
37931;SDS011;23758;42.640;23.302;2022-07-15T05:41:44;0.70;;;0.70;;
37931;SDS011;23758;42.640;23.302;2022-07-15T05:44:09;0.77;;;0.77;;
37931;SDS011;23758;42.640;23.302;2022-07-15T05:46:35;0.77;;;0.77;;
37931;SDS011;23758;42.640;23.302;2022-07-15T05:49:01;0.75;;;0.75;;
37931;SDS011;23758;42.640;23.302;2022-07-15T05:51:26;0.70;;;0.70;;
37931;SDS011;23758;42.640;23.302;2022-07-15T05:53:52;0.80;;;0.80;;
37931;SDS011;23758;42.640;23.302;2022-07-15T05:56:18;0.95;;;0.90;;
37931;SDS011;23758;42.640;23.302;2022-07-15T05:58:43;1.10;;;1.00;;
37931;SDS011;23758;42.640;23.302;2022-07-15T06:01:09;1.48;;;1.38;;
37931;SDS011;23758;42.640;23.302;2022-07-15T06:03:34;1.42;;;1.33;;
37931;SDS011;23758;42.640;23.302;2022-07-15T06:06:00;1.40;;;1.30;;
37931;SDS011;23758;42.640;23.302;2022-07-15T06:08:28;1.38;;;1.27;;
37931;SDS011;23758;42.640;23.302;2022-07-15T06:10:54;1.52;;;1.42;;
37931;SDS011;23758;42.640;23.302;2022-07-15T06:13:19;2.45;;;1.50;;
37931;SDS011;23758;42.640;23.302;2022-07-15T06:15:45;1.52;;;1.42;;
37931;SDS011;23758;42.640;23.302;2022-07-15T06:18:11;2.45;;;1.35;;
37931;SDS011;23758;42.640;23.302;2022-07-15T06:20:37;1.73;;;1.60;;
37931;SDS011;23758;42.640;23.302;2022-07-15T06:23:02;5.55;;;1.85;;
37931;SDS011;23758;42.640;23.302;2022-07-15T06:25:28;1.40;;;1.30;;
37931;SDS011;23758;42.640;23.302;2022-07-15T06:27:53;6.68;;;1.88;;
37931;SDS011;23758;42.640;23.302;2022-07-15T06:30:23;1.95;;;1.85;;
37931;SDS011;23758;42.640;23.302;2022-07-15T06:32:49;1.65;;;1.55;;
37931;SDS011;23758;42.640;23.302;2022-07-15T06:35:14;3.35;;;2.05;;
37931;SDS011;23758;42.640;23.302;2022-07-15T06:37:40;1.77;;;1.67;;
37931;SDS011;23758;42.640;23.302;2022-07-15T06:40:06;1.85;;;1.75;;
37931;SDS011;23758;42.640;23.302;2022-07-15T06:42:32;3.55;;;1.95;;
37931;SDS011;23758;42.640;23.302;2022-07-15T06:44:58;2.15;;;1.75;;
37931;SDS011;23758;42.640;23.302;2022-07-15T06:47:23;1.90;;;1.80;;
37931;SDS011;23758;42.640;23.302;2022-07-15T06:49:49;1.63;;;1.52;;
37931;SDS011;23758;42.640;23.302;2022-07-15T06:52:16;1.70;;;1.60;;
37931;SDS011;23758;42.640;23.302;2022-07-15T06:54:42;2.13;;;2.03;;
37931;SDS011;23758;42.640;23.302;2022-07-15T06:57:07;2.15;;;2.05;;
37931;SDS011;23758;42.640;23.302;2022-07-15T06:59:34;1.70;;;1.60;;
37931;SDS011;23758;42.640;23.302;2022-07-15T07:01:59;2.25;;;2.05;;
37931;SDS011;23758;42.640;23.302;2022-07-15T07:04:25;1.70;;;1.60;;
37931;SDS011;23758;42.640;23.302;2022-07-15T07:06:51;3.20;;;2.22;;
37931;SDS011;23758;42.640;23.302;2022-07-15T07:09:16;1.90;;;1.80;;
37931;SDS011;23758;42.640;23.302;2022-07-15T07:11:42;1.80;;;1.70;;
37931;SDS011;23758;42.640;23.302;2022-07-15T07:14:07;2.28;;;2.00;;
37931;SDS011;23758;42.640;23.302;2022-07-15T07:16:33;2.20;;;1.90;;
37931;SDS011;23758;42.640;23.302;2022-07-15T07:18:59;2.85;;;2.15;;
37931;SDS011;23758;42.640;23.302;2022-07-15T07:21:24;1.70;;;1.60;;
37931;SDS011;23758;42.640;23.302;2022-07-15T07:23:50;1.90;;;1.80;;
37931;SDS011;23758;42.640;23.302;2022-07-15T07:26:16;1.70;;;1.60;;
37931;SDS011;23758;42.640;23.302;2022-07-15T07:28:42;3.85;;;2.22;;
37931;SDS011;23758;42.640;23.302;2022-07-15T07:31:09;1.92;;;1.80;;
37931;SDS011;23758;42.640;23.302;2022-07-15T07:33:36;2.00;;;1.90;;
37931;SDS011;23758;42.640;23.302;2022-07-15T07:36:07;1.90;;;1.80;;
37931;SDS011;23758;42.640;23.302;2022-07-15T07:38:33;1.50;;;1.40;;
37931;SDS011;23758;42.640;23.302;2022-07-15T07:40:59;1.60;;;1.50;;
37931;SDS011;23758;42.640;23.302;2022-07-15T07:43:25;1.60;;;1.50;;
37931;SDS011;23758;42.640;23.302;2022-07-15T07:45:50;1.60;;;1.50;;
37931;SDS011;23758;42.640;23.302;2022-07-15T07:48:16;1.40;;;1.30;;
37931;SDS011;23758;42.640;23.302;2022-07-15T07:50:42;1.65;;;1.55;;
37931;SDS011;23758;42.640;23.302;2022-07-15T07:53:08;1.50;;;1.40;;
37931;SDS011;23758;42.640;23.302;2022-07-15T07:55:35;1.80;;;1.70;;
37931;SDS011;23758;42.640;23.302;2022-07-15T07:58:00;1.33;;;1.30;;
37931;SDS011;23758;42.640;23.302;2022-07-15T08:00:26;1.50;;;1.40;;
37931;SDS011;23758;42.640;23.302;2022-07-15T08:02:53;1.40;;;1.30;;
37931;SDS011;23758;42.640;23.302;2022-07-15T08:05:20;1.35;;;1.27;;
37931;SDS011;23758;42.640;23.302;2022-07-15T08:07:46;1.73;;;1.63;;
37931;SDS011;23758;42.640;23.302;2022-07-15T08:10:12;1.30;;;1.20;;
37931;SDS011;23758;42.640;23.302;2022-07-15T08:12:39;1.35;;;1.25;;
37931;SDS011;23758;42.640;23.302;2022-07-15T08:15:05;1.10;;;1.10;;
37931;SDS011;23758;42.640;23.302;2022-07-15T08:17:32;1.30;;;1.20;;
37931;SDS011;23758;42.640;23.302;2022-07-15T08:19:57;1.00;;;1.00;;
37931;SDS011;23758;42.640;23.302;2022-07-15T08:22:23;0.95;;;0.95;;
37931;SDS011;23758;42.640;23.302;2022-07-15T08:24:48;1.10;;;0.93;;
37931;SDS011;23758;42.640;23.302;2022-07-15T08:27:17;0.90;;;0.90;;
37931;SDS011;23758;42.640;23.302;2022-07-15T08:29:43;1.17;;;1.10;;
37931;SDS011;23758;42.640;23.302;2022-07-15T08:32:21;1.00;;;1.00;;
37931;SDS011;23758;42.640;23.302;2022-07-15T08:35:22;2.80;;;1.10;;
37931;SDS011;23758;42.640;23.302;2022-07-15T08:44:03;1.02;;;1.02;;
37931;SDS011;23758;42.640;23.302;2022-07-15T08:53:11;1.00;;;1.00;;
37931;SDS011;23758;42.640;23.302;2022-07-15T08:59:18;2.08;;;1.45;;
37931;SDS011;23758;42.640;23.302;2022-07-15T09:01:45;1.10;;;1.10;;
37931;SDS011;23758;42.640;23.302;2022-07-15T09:04:11;1.90;;;1.42;;
37931;SDS011;23758;42.640;23.302;2022-07-15T09:06:41;1.30;;;1.20;;
37931;SDS011;23758;42.640;23.302;2022-07-15T09:11:43;1.00;;;1.00;;
37931;SDS011;23758;42.640;23.302;2022-07-15T09:14:11;1.10;;;1.10;;
37931;SDS011;23758;42.640;23.302;2022-07-15T09:16:37;1.10;;;1.10;;
37931;SDS011;23758;42.640;23.302;2022-07-15T09:19:02;1.10;;;1.10;;
37931;SDS011;23758;42.640;23.302;2022-07-15T09:21:28;1.05;;;1.05;;
37931;SDS011;23758;42.640;23.302;2022-07-15T09:23:54;1.10;;;1.10;;
37931;SDS011;23758;42.640;23.302;2022-07-15T09:26:27;1.30;;;1.20;;
37931;SDS011;23758;42.640;23.302;2022-07-15T09:28:58;1.10;;;1.10;;
37931;SDS011;23758;42.640;23.302;2022-07-15T09:31:31;1.02;;;1.02;;
37931;SDS011;23758;42.640;23.302;2022-07-15T09:34:17;1.70;;;1.60;;
37931;SDS011;23758;42.640;23.302;2022-07-15T09:36:44;1.10;;;1.10;;
37931;SDS011;23758;42.640;23.302;2022-07-15T09:39:16;1.08;;;1.08;;
37931;SDS011;23758;42.640;23.302;2022-07-15T09:41:42;0.93;;;0.93;;
37931;SDS011;23758;42.640;23.302;2022-07-15T09:44:13;1.35;;;1.25;;
37931;SDS011;23758;42.640;23.302;2022-07-15T09:46:53;1.17;;;1.10;;
37931;SDS011;23758;42.640;23.302;2022-07-15T09:54:23;1.00;;;1.00;;
37931;SDS011;23758;42.640;23.302;2022-07-15T09:56:50;0.90;;;0.90;;
37931;SDS011;23758;42.640;23.302;2022-07-15T09:59:17;1.40;;;1.30;;
37931;SDS011;23758;42.640;23.302;2022-07-15T10:01:43;1.05;;;1.05;;
37931;SDS011;23758;42.640;23.302;2022-07-15T10:04:10;0.90;;;0.90;;
37931;SDS011;23758;42.640;23.302;2022-07-15T10:06:35;0.90;;;0.90;;
37931;SDS011;23758;42.640;23.302;2022-07-15T10:09:03;0.90;;;0.90;;
37931;SDS011;23758;42.640;23.302;2022-07-15T10:11:29;0.90;;;0.90;;
37931;SDS011;23758;42.640;23.302;2022-07-15T10:29:51;1.10;;;1.00;;
37931;SDS011;23758;42.640;23.302;2022-07-15T10:32:18;0.90;;;0.90;;
37931;SDS011;23758;42.640;23.302;2022-07-15T10:34:44;1.25;;;1.15;;
37931;SDS011;23758;42.640;23.302;2022-07-15T10:37:10;1.00;;;1.00;;
37931;SDS011;23758;42.640;23.302;2022-07-15T10:42:11;1.02;;;1.02;;
37931;SDS011;23758;42.640;23.302;2022-07-15T10:44:49;0.98;;;0.98;;
37931;SDS011;23758;42.640;23.302;2022-07-15T10:49:42;1.10;;;1.10;;
37931;SDS011;23758;42.640;23.302;2022-07-15T10:57:19;0.93;;;0.93;;
37931;SDS011;23758;42.640;23.302;2022-07-15T10:59:49;1.00;;;1.00;;
37931;SDS011;23758;42.640;23.302;2022-07-15T11:02:17;0.90;;;0.90;;
37931;SDS011;23758;42.640;23.302;2022-07-15T11:04:43;0.90;;;0.90;;
37931;SDS011;23758;42.640;23.302;2022-07-15T11:20:00;1.30;;;1.20;;
37931;SDS011;23758;42.640;23.302;2022-07-15T11:22:33;0.90;;;0.90;;
37931;SDS011;23758;42.640;23.302;2022-07-15T11:25:01;1.08;;;1.00;;
37931;SDS011;23758;42.640;23.302;2022-07-15T11:27:29;0.90;;;0.90;;
37931;SDS011;23758;42.640;23.302;2022-07-15T11:29:58;0.93;;;0.93;;
37931;SDS011;23758;42.640;23.302;2022-07-15T11:32:30;1.23;;;1.13;;
37931;SDS011;23758;42.640;23.302;2022-07-15T11:34:57;0.90;;;0.90;;
37931;SDS011;23758;42.640;23.302;2022-07-15T11:37:25;0.80;;;0.80;;
37931;SDS011;23758;42.640;23.302;2022-07-15T11:40:03;0.70;;;0.70;;
37931;SDS011;23758;42.640;23.302;2022-07-15T11:42:34;0.80;;;0.80;;
37931;SDS011;23758;42.640;23.302;2022-07-15T11:45:34;0.82;;;0.82;;
37931;SDS011;23758;42.640;23.302;2022-07-15T11:48:01;0.90;;;0.90;;
37931;SDS011;23758;42.640;23.302;2022-07-15T11:50:31;0.90;;;0.90;;
37931;SDS011;23758;42.640;23.302;2022-07-15T11:53:00;1.15;;;1.05;;
37931;SDS011;23758;42.640;23.302;2022-07-15T11:55:46;1.58;;;1.30;;
37931;SDS011;23758;42.640;23.302;2022-07-15T11:58:12;1.05;;;1.05;;
37931;SDS011;23758;42.640;23.302;2022-07-15T12:00:38;1.02;;;0.98;;
37931;SDS011;23758;42.640;23.302;2022-07-15T12:03:07;1.30;;;1.20;;
37931;SDS011;23758;42.640;23.302;2022-07-15T12:05:33;0.93;;;0.93;;
37931;SDS011;23758;42.640;23.302;2022-07-15T12:07:59;0.90;;;0.90;;
37931;SDS011;23758;42.640;23.302;2022-07-15T12:10:34;0.90;;;0.90;;
37931;SDS011;23758;42.640;23.302;2022-07-15T12:13:01;0.82;;;0.82;;
37931;SDS011;23758;42.640;23.302;2022-07-15T12:15:31;1.15;;;1.05;;
37931;SDS011;23758;42.640;23.302;2022-07-15T12:17:58;0.90;;;0.90;;
37931;SDS011;23758;42.640;23.302;2022-07-15T12:20:23;1.10;;;1.00;;
37931;SDS011;23758;42.640;23.302;2022-07-15T12:25:34;1.58;;;1.48;;
37931;SDS011;23758;42.640;23.302;2022-07-15T12:28:00;1.00;;;1.00;;
37931;SDS011;23758;42.640;23.302;2022-07-15T12:30:33;0.88;;;0.88;;
37931;SDS011;23758;42.640;23.302;2022-07-15T12:39:10;1.00;;;0.90;;
37931;SDS011;23758;42.640;23.302;2022-07-15T12:41:39;0.70;;;0.70;;
37931;SDS011;23758;42.640;23.302;2022-07-15T12:44:06;0.80;;;0.80;;
37931;SDS011;23758;42.640;23.302;2022-07-15T12:52:20;1.10;;;1.10;;
37931;SDS011;23758;42.640;23.302;2022-07-15T12:54:49;1.00;;;1.00;;
37931;SDS011;23758;42.640;23.302;2022-07-15T12:59:51;1.17;;;1.08;;
37931;SDS011;23758;42.640;23.302;2022-07-15T13:02:24;0.90;;;0.90;;
37931;SDS011;23758;42.640;23.302;2022-07-15T13:04:50;1.00;;;1.00;;
37931;SDS011;23758;42.640;23.302;2022-07-15T13:07:16;0.95;;;0.95;;
37931;SDS011;23758;42.640;23.302;2022-07-15T13:09:43;1.05;;;1.05;;
37931;SDS011;23758;42.640;23.302;2022-07-15T13:15:59;1.35;;;1.25;;
37931;SDS011;23758;42.640;23.302;2022-07-15T13:21:49;1.67;;;1.58;;
37931;SDS011;23758;42.640;23.302;2022-07-15T13:27:42;1.13;;;1.10;;
37931;SDS011;23758;42.640;23.302;2022-07-15T13:30:08;1.30;;;1.20;;
37931;SDS011;23758;42.640;23.302;2022-07-15T13:32:34;1.30;;;1.20;;
37931;SDS011;23758;42.640;23.302;2022-07-15T13:34:59;1.25;;;1.15;;
37931;SDS011;23758;42.640;23.302;2022-07-15T13:37:25;1.30;;;1.20;;
37931;SDS011;23758;42.640;23.302;2022-07-15T13:39:50;1.10;;;1.10;;
37931;SDS011;23758;42.640;23.302;2022-07-15T13:45:25;1.00;;;1.00;;
37931;SDS011;23758;42.640;23.302;2022-07-15T13:47:51;1.00;;;1.00;;
37931;SDS011;23758;42.640;23.302;2022-07-15T13:50:17;1.15;;;1.10;;
37931;SDS011;23758;42.640;23.302;2022-07-15T13:53:01;4.00;;;1.90;;
37931;SDS011;23758;42.640;23.302;2022-07-15T13:55:27;1.00;;;1.00;;
37931;SDS011;23758;42.640;23.302;2022-07-15T13:57:53;1.00;;;1.00;;
37931;SDS011;23758;42.640;23.302;2022-07-15T14:00:19;1.20;;;1.10;;
37931;SDS011;23758;42.640;23.302;2022-07-15T14:02:47;1.27;;;1.20;;
37931;SDS011;23758;42.640;23.302;2022-07-15T14:05:13;0.90;;;0.90;;
37931;SDS011;23758;42.640;23.302;2022-07-15T14:07:40;1.00;;;1.00;;
37931;SDS011;23758;42.640;23.302;2022-07-15T14:10:06;1.00;;;1.00;;
37931;SDS011;23758;42.640;23.302;2022-07-15T14:12:33;1.25;;;1.15;;
37931;SDS011;23758;42.640;23.302;2022-07-15T14:14:58;1.00;;;1.00;;
37931;SDS011;23758;42.640;23.302;2022-07-15T14:17:24;1.20;;;1.10;;
37931;SDS011;23758;42.640;23.302;2022-07-15T14:19:50;1.17;;;1.10;;
37931;SDS011;23758;42.640;23.302;2022-07-15T14:22:19;2.15;;;1.10;;
37931;SDS011;23758;42.640;23.302;2022-07-15T14:24:47;1.00;;;1.00;;
37931;SDS011;23758;42.640;23.302;2022-07-15T14:27:13;1.05;;;1.05;;
37931;SDS011;23758;42.640;23.302;2022-07-15T14:29:38;1.00;;;1.00;;
37931;SDS011;23758;42.640;23.302;2022-07-15T14:32:04;1.05;;;1.05;;
37931;SDS011;23758;42.640;23.302;2022-07-15T14:34:30;1.00;;;1.00;;
37931;SDS011;23758;42.640;23.302;2022-07-15T14:36:55;1.08;;;1.08;;
37931;SDS011;23758;42.640;23.302;2022-07-15T14:39:22;1.20;;;1.10;;
37931;SDS011;23758;42.640;23.302;2022-07-15T14:41:49;1.30;;;1.20;;
37931;SDS011;23758;42.640;23.302;2022-07-15T14:44:17;1.23;;;1.13;;
37931;SDS011;23758;42.640;23.302;2022-07-15T14:46:43;1.27;;;1.17;;
37931;SDS011;23758;42.640;23.302;2022-07-15T14:49:08;1.00;;;1.00;;
37931;SDS011;23758;42.640;23.302;2022-07-15T14:51:37;1.38;;;1.27;;
37931;SDS011;23758;42.640;23.302;2022-07-15T14:54:13;1.25;;;1.15;;
37931;SDS011;23758;42.640;23.302;2022-07-15T14:56:38;1.05;;;1.05;;
37931;SDS011;23758;42.640;23.302;2022-07-15T14:59:37;1.05;;;1.05;;
37931;SDS011;23758;42.640;23.302;2022-07-15T15:01:56;1.27;;;1.20;;
37931;SDS011;23758;42.640;23.302;2022-07-15T15:04:21;1.00;;;1.00;;
37931;SDS011;23758;42.640;23.302;2022-07-15T15:06:47;1.00;;;1.00;;
37931;SDS011;23758;42.640;23.302;2022-07-15T15:09:13;1.02;;;1.02;;
37931;SDS011;23758;42.640;23.302;2022-07-15T15:11:39;1.30;;;1.20;;
37931;SDS011;23758;42.640;23.302;2022-07-15T15:14:10;1.00;;;1.00;;
37931;SDS011;23758;42.640;23.302;2022-07-15T15:16:36;1.10;;;1.10;;
37931;SDS011;23758;42.640;23.302;2022-07-15T15:19:01;1.40;;;1.30;;
37931;SDS011;23758;42.640;23.302;2022-07-15T15:21:27;1.10;;;1.10;;
37931;SDS011;23758;42.640;23.302;2022-07-15T15:23:52;1.08;;;1.08;;
37931;SDS011;23758;42.640;23.302;2022-07-15T15:26:18;1.20;;;1.10;;
37931;SDS011;23758;42.640;23.302;2022-07-15T15:28:47;1.10;;;1.10;;
37931;SDS011;23758;42.640;23.302;2022-07-15T15:31:21;1.10;;;1.10;;
37931;SDS011;23758;42.640;23.302;2022-07-15T15:33:48;1.25;;;1.17;;
37931;SDS011;23758;42.640;23.302;2022-07-15T15:39:17;1.10;;;1.10;;
37931;SDS011;23758;42.640;23.302;2022-07-15T15:41:42;1.27;;;1.20;;
37931;SDS011;23758;42.640;23.302;2022-07-15T15:44:08;1.10;;;1.10;;
37931;SDS011;23758;42.640;23.302;2022-07-15T15:46:33;1.00;;;1.00;;
37931;SDS011;23758;42.640;23.302;2022-07-15T15:52:22;1.10;;;1.10;;
37931;SDS011;23758;42.640;23.302;2022-07-15T15:54:48;1.38;;;1.27;;
37931;SDS011;23758;42.640;23.302;2022-07-15T15:57:13;1.00;;;1.00;;
37931;SDS011;23758;42.640;23.302;2022-07-15T15:59:39;1.00;;;1.00;;
37931;SDS011;23758;42.640;23.302;2022-07-15T16:02:04;1.35;;;1.25;;
37931;SDS011;23758;42.640;23.302;2022-07-15T16:04:30;1.15;;;1.10;;
37931;SDS011;23758;42.640;23.302;2022-07-15T16:06:55;1.30;;;1.20;;
37931;SDS011;23758;42.640;23.302;2022-07-15T16:09:21;1.10;;;1.10;;
37931;SDS011;23758;42.640;23.302;2022-07-15T16:11:46;1.55;;;1.45;;